sensor_id;sensor_type;location;lat;lon;timestamp;temperature;humidity
23751;DHT22;12055;52.098;13.176;2022-07-18T00:01:42;12.80;99.90
23751;DHT22;12055;52.098;13.176;2022-07-18T00:04:07;12.80;99.90
23751;DHT22;12055;52.098;13.176;2022-07-18T00:06:33;12.70;99.90
23751;DHT22;12055;52.098;13.176;2022-07-18T00:09:00;12.70;99.90
23751;DHT22;12055;52.098;13.176;2022-07-18T00:11:25;12.60;99.90
23751;DHT22;12055;52.098;13.176;2022-07-18T00:13:51;12.50;99.90
23751;DHT22;12055;52.098;13.176;2022-07-18T00:16:17;12.50;99.90
23751;DHT22;12055;52.098;13.176;2022-07-18T00:18:43;12.40;99.90
23751;DHT22;12055;52.098;13.176;2022-07-18T00:21:08;12.40;99.90
23751;DHT22;12055;52.098;13.176;2022-07-18T00:23:34;12.40;99.90
23751;DHT22;12055;52.098;13.176;2022-07-18T00:25:59;12.30;99.90
23751;DHT22;12055;52.098;13.176;2022-07-18T00:28:25;12.40;99.90
23751;DHT22;12055;52.098;13.176;2022-07-18T00:30:50;12.40;99.90
23751;DHT22;12055;52.098;13.176;2022-07-18T00:33:16;12.40;99.90
23751;DHT22;12055;52.098;13.176;2022-07-18T00:35:41;12.40;99.90
23751;DHT22;12055;52.098;13.176;2022-07-18T00:38:07;12.50;99.90
23751;DHT22;12055;52.098;13.176;2022-07-18T00:40:32;12.50;99.90
23751;DHT22;12055;52.098;13.176;2022-07-18T00:42:58;12.60;99.90
23751;DHT22;12055;52.098;13.176;2022-07-18T00:45:24;12.70;99.90
23751;DHT22;12055;52.098;13.176;2022-07-18T00:47:49;12.70;99.90
23751;DHT22;12055;52.098;13.176;2022-07-18T00:50:19;12.70;99.90
23751;DHT22;12055;52.098;13.176;2022-07-18T00:52:45;12.80;99.90
23751;DHT22;12055;52.098;13.176;2022-07-18T00:55:11;12.80;99.90
23751;DHT22;12055;52.098;13.176;2022-07-18T00:57:37;12.80;99.90
23751;DHT22;12055;52.098;13.176;2022-07-18T01:00:06;12.80;99.90
23751;DHT22;12055;52.098;13.176;2022-07-18T01:02:52;12.80;99.90
23751;DHT22;12055;52.098;13.176;2022-07-18T01:05:17;12.80;99.90
23751;DHT22;12055;52.098;13.176;2022-07-18T01:07:43;12.70;99.90
23751;DHT22;12055;52.098;13.176;2022-07-18T01:10:08;12.70;99.90
23751;DHT22;12055;52.098;13.176;2022-07-18T01:12:34;12.70;99.90
23751;DHT22;12055;52.098;13.176;2022-07-18T01:15:00;12.60;99.90
23751;DHT22;12055;52.098;13.176;2022-07-18T01:17:25;12.50;99.90
23751;DHT22;12055;52.098;13.176;2022-07-18T01:19:51;12.50;99.90
23751;DHT22;12055;52.098;13.176;2022-07-18T01:22:18;12.40;99.90
23751;DHT22;12055;52.098;13.176;2022-07-18T01:24:45;12.30;99.90
23751;DHT22;12055;52.098;13.176;2022-07-18T01:27:17;12.30;99.90
23751;DHT22;12055;52.098;13.176;2022-07-18T01:29:44;12.20;99.90
23751;DHT22;12055;52.098;13.176;2022-07-18T01:32:11;12.10;99.90
23751;DHT22;12055;52.098;13.176;2022-07-18T01:34:36;12.00;99.90
23751;DHT22;12055;52.098;13.176;2022-07-18T01:37:03;12.00;99.90
23751;DHT22;12055;52.098;13.176;2022-07-18T01:39:29;11.90;99.90
23751;DHT22;12055;52.098;13.176;2022-07-18T01:41:56;11.90;99.90
23751;DHT22;12055;52.098;13.176;2022-07-18T01:44:22;11.80;99.90
23751;DHT22;12055;52.098;13.176;2022-07-18T01:46:47;11.70;99.90
23751;DHT22;12055;52.098;13.176;2022-07-18T01:49:13;11.70;99.90
23751;DHT22;12055;52.098;13.176;2022-07-18T01:51:38;11.60;99.90
23751;DHT22;12055;52.098;13.176;2022-07-18T01:54:03;11.60;99.90
23751;DHT22;12055;52.098;13.176;2022-07-18T01:56:29;11.50;99.90
23751;DHT22;12055;52.098;13.176;2022-07-18T01:58:54;11.50;99.90
23751;DHT22;12055;52.098;13.176;2022-07-18T02:01:20;11.40;99.90
23751;DHT22;12055;52.098;13.176;2022-07-18T02:03:45;11.40;99.90
23751;DHT22;12055;52.098;13.176;2022-07-18T02:06:11;11.40;99.90
23751;DHT22;12055;52.098;13.176;2022-07-18T02:08:36;11.30;99.90
23751;DHT22;12055;52.098;13.176;2022-07-18T02:11:02;11.30;99.90
23751;DHT22;12055;52.098;13.176;2022-07-18T02:13:28;11.20;99.90
23751;DHT22;12055;52.098;13.176;2022-07-18T02:15:53;11.10;99.90
23751;DHT22;12055;52.098;13.176;2022-07-18T02:18:20;11.20;99.90
23751;DHT22;12055;52.098;13.176;2022-07-18T02:20:46;11.20;99.90
23751;DHT22;12055;52.098;13.176;2022-07-18T02:23:11;11.10;99.90
23751;DHT22;12055;52.098;13.176;2022-07-18T02:25:37;11.10;99.90
23751;DHT22;12055;52.098;13.176;2022-07-18T02:28:03;11.10;99.90
23751;DHT22;12055;52.098;13.176;2022-07-18T02:30:29;11.00;99.90
23751;DHT22;12055;52.098;13.176;2022-07-18T02:32:55;10.90;99.90
23751;DHT22;12055;52.098;13.176;2022-07-18T02:35:20;10.90;99.90
23751;DHT22;12055;52.098;13.176;2022-07-18T02:37:46;10.90;99.90
23751;DHT22;12055;52.098;13.176;2022-07-18T02:40:11;10.90;99.90
23751;DHT22;12055;52.098;13.176;2022-07-18T02:42:37;10.90;99.90
23751;DHT22;12055;52.098;13.176;2022-07-18T02:45:07;10.90;99.90
23751;DHT22;12055;52.098;13.176;2022-07-18T02:47:33;10.90;99.90
23751;DHT22;12055;52.098;13.176;2022-07-18T02:49:59;11.00;99.90
23751;DHT22;12055;52.098;13.176;2022-07-18T02:52:24;11.10;99.90
23751;DHT22;12055;52.098;13.176;2022-07-18T02:54:50;11.10;99.90
23751;DHT22;12055;52.098;13.176;2022-07-18T02:57:15;11.10;99.90
23751;DHT22;12055;52.098;13.176;2022-07-18T02:59:41;11.10;99.90
23751;DHT22;12055;52.098;13.176;2022-07-18T03:02:06;11.10;99.90
23751;DHT22;12055;52.098;13.176;2022-07-18T03:04:32;11.10;99.90
23751;DHT22;12055;52.098;13.176;2022-07-18T03:06:57;11.10;99.90
23751;DHT22;12055;52.098;13.176;2022-07-18T03:09:23;11.10;99.90
23751;DHT22;12055;52.098;13.176;2022-07-18T03:11:53;11.10;99.90
23751;DHT22;12055;52.098;13.176;2022-07-18T03:14:18;11.10;99.90
23751;DHT22;12055;52.098;13.176;2022-07-18T03:16:44;11.10;99.90
23751;DHT22;12055;52.098;13.176;2022-07-18T03:19:09;10.90;99.90
23751;DHT22;12055;52.098;13.176;2022-07-18T03:21:35;11.00;99.90
23751;DHT22;12055;52.098;13.176;2022-07-18T03:24:00;11.00;99.90
23751;DHT22;12055;52.098;13.176;2022-07-18T03:26:26;11.00;99.90
23751;DHT22;12055;52.098;13.176;2022-07-18T03:28:51;11.00;99.90
23751;DHT22;12055;52.098;13.176;2022-07-18T03:31:17;11.00;99.90
23751;DHT22;12055;52.098;13.176;2022-07-18T03:33:42;11.00;99.90
23751;DHT22;12055;52.098;13.176;2022-07-18T03:36:08;11.00;99.90
23751;DHT22;12055;52.098;13.176;2022-07-18T03:38:34;11.10;99.90
23751;DHT22;12055;52.098;13.176;2022-07-18T03:41:01;11.10;99.90
23751;DHT22;12055;52.098;13.176;2022-07-18T03:43:27;11.30;99.90
23751;DHT22;12055;52.098;13.176;2022-07-18T03:45:53;11.40;99.90
23751;DHT22;12055;52.098;13.176;2022-07-18T03:48:18;11.50;99.90
23751;DHT22;12055;52.098;13.176;2022-07-18T03:50:43;11.60;99.90
23751;DHT22;12055;52.098;13.176;2022-07-18T03:53:09;11.70;99.90
23751;DHT22;12055;52.098;13.176;2022-07-18T03:55:35;11.80;99.90
23751;DHT22;12055;52.098;13.176;2022-07-18T03:58:00;11.80;99.90
23751;DHT22;12055;52.098;13.176;2022-07-18T04:00:26;11.90;99.90
23751;DHT22;12055;52.098;13.176;2022-07-18T04:02:51;12.00;99.90
23751;DHT22;12055;52.098;13.176;2022-07-18T04:05:17;12.00;99.90
23751;DHT22;12055;52.098;13.176;2022-07-18T04:07:43;12.00;99.90
23751;DHT22;12055;52.098;13.176;2022-07-18T04:10:10;12.00;99.90
23751;DHT22;12055;52.098;13.176;2022-07-18T04:12:45;12.00;99.90
23751;DHT22;12055;52.098;13.176;2022-07-18T04:15:11;12.10;99.90
23751;DHT22;12055;52.098;13.176;2022-07-18T04:17:37;12.20;99.90
23751;DHT22;12055;52.098;13.176;2022-07-18T04:20:02;12.30;99.90
23751;DHT22;12055;52.098;13.176;2022-07-18T04:22:28;12.50;99.90
23751;DHT22;12055;52.098;13.176;2022-07-18T04:24:53;12.60;99.90
23751;DHT22;12055;52.098;13.176;2022-07-18T04:27:19;12.80;99.90
23751;DHT22;12055;52.098;13.176;2022-07-18T04:29:44;13.00;99.90
23751;DHT22;12055;52.098;13.176;2022-07-18T04:32:10;13.10;99.90
23751;DHT22;12055;52.098;13.176;2022-07-18T04:34:35;13.30;99.90
23751;DHT22;12055;52.098;13.176;2022-07-18T04:37:01;13.60;99.90
23751;DHT22;12055;52.098;13.176;2022-07-18T04:39:26;13.90;99.90
23751;DHT22;12055;52.098;13.176;2022-07-18T04:41:52;14.30;99.90
23751;DHT22;12055;52.098;13.176;2022-07-18T04:44:17;14.90;99.90
23751;DHT22;12055;52.098;13.176;2022-07-18T04:46:43;15.50;99.90
23751;DHT22;12055;52.098;13.176;2022-07-18T04:49:08;16.20;99.90
23751;DHT22;12055;52.098;13.176;2022-07-18T04:51:34;16.90;99.90
23751;DHT22;12055;52.098;13.176;2022-07-18T04:53:59;17.60;99.90
23751;DHT22;12055;52.098;13.176;2022-07-18T04:56:25;18.10;99.90
23751;DHT22;12055;52.098;13.176;2022-07-18T04:58:50;18.50;99.90
23751;DHT22;12055;52.098;13.176;2022-07-18T05:01:16;18.90;99.90
23751;DHT22;12055;52.098;13.176;2022-07-18T05:03:41;19.50;99.90
23751;DHT22;12055;52.098;13.176;2022-07-18T05:06:06;19.80;99.90
23751;DHT22;12055;52.098;13.176;2022-07-18T05:08:32;20.00;99.90
23751;DHT22;12055;52.098;13.176;2022-07-18T05:10:58;20.40;99.90
23751;DHT22;12055;52.098;13.176;2022-07-18T05:13:23;20.80;99.90
23751;DHT22;12055;52.098;13.176;2022-07-18T05:15:49;21.20;99.90
23751;DHT22;12055;52.098;13.176;2022-07-18T05:18:14;21.60;99.90
23751;DHT22;12055;52.098;13.176;2022-07-18T05:20:40;21.90;99.90
23751;DHT22;12055;52.098;13.176;2022-07-18T05:23:05;22.10;99.90
23751;DHT22;12055;52.098;13.176;2022-07-18T05:25:31;22.40;99.90
23751;DHT22;12055;52.098;13.176;2022-07-18T05:27:56;22.70;99.90
23751;DHT22;12055;52.098;13.176;2022-07-18T05:30:22;23.00;99.90
23751;DHT22;12055;52.098;13.176;2022-07-18T05:32:48;23.20;99.90
23751;DHT22;12055;52.098;13.176;2022-07-18T05:35:15;23.40;99.90
23751;DHT22;12055;52.098;13.176;2022-07-18T05:37:41;23.60;99.90
23751;DHT22;12055;52.098;13.176;2022-07-18T05:40:09;24.00;99.90
23751;DHT22;12055;52.098;13.176;2022-07-18T05:42:35;24.00;99.90
23751;DHT22;12055;52.098;13.176;2022-07-18T05:45:01;24.20;99.90
23751;DHT22;12055;52.098;13.176;2022-07-18T05:47:27;24.10;99.90
23751;DHT22;12055;52.098;13.176;2022-07-18T05:49:52;24.10;99.90
23751;DHT22;12055;52.098;13.176;2022-07-18T05:52:18;24.40;99.90
23751;DHT22;12055;52.098;13.176;2022-07-18T05:54:43;24.70;99.90
23751;DHT22;12055;52.098;13.176;2022-07-18T05:57:09;25.00;99.90
23751;DHT22;12055;52.098;13.176;2022-07-18T05:59:34;25.40;99.90
23751;DHT22;12055;52.098;13.176;2022-07-18T06:02:00;25.70;99.90
23751;DHT22;12055;52.098;13.176;2022-07-18T06:04:25;26.10;99.90
23751;DHT22;12055;52.098;13.176;2022-07-18T06:06:51;26.30;99.90
23751;DHT22;12055;52.098;13.176;2022-07-18T06:09:17;26.60;99.90
23751;DHT22;12055;52.098;13.176;2022-07-18T06:11:43;26.40;99.70
23751;DHT22;12055;52.098;13.176;2022-07-18T06:14:09;26.30;99.90
23751;DHT22;12055;52.098;13.176;2022-07-18T06:16:35;26.40;99.90
23751;DHT22;12055;52.098;13.176;2022-07-18T06:19:02;26.50;99.60
23751;DHT22;12055;52.098;13.176;2022-07-18T06:21:27;26.80;99.90
23751;DHT22;12055;52.098;13.176;2022-07-18T06:23:53;27.10;98.80
23751;DHT22;12055;52.098;13.176;2022-07-18T06:26:19;26.90;97.70
23751;DHT22;12055;52.098;13.176;2022-07-18T06:28:44;26.80;97.60
23751;DHT22;12055;52.098;13.176;2022-07-18T06:31:10;26.80;96.60
23751;DHT22;12055;52.098;13.176;2022-07-18T06:33:37;26.80;97.80
23751;DHT22;12055;52.098;13.176;2022-07-18T06:36:03;27.00;96.20
23751;DHT22;12055;52.098;13.176;2022-07-18T06:38:28;27.60;96.90
23751;DHT22;12055;52.098;13.176;2022-07-18T06:40:54;28.00;95.40
23751;DHT22;12055;52.098;13.176;2022-07-18T06:43:19;28.30;95.00
23751;DHT22;12055;52.098;13.176;2022-07-18T06:45:46;28.40;93.90
23751;DHT22;12055;52.098;13.176;2022-07-18T06:48:15;28.40;93.30
23751;DHT22;12055;52.098;13.176;2022-07-18T06:50:41;28.40;94.30
23751;DHT22;12055;52.098;13.176;2022-07-18T06:53:07;28.40;94.50
23751;DHT22;12055;52.098;13.176;2022-07-18T06:55:32;28.60;92.50
23751;DHT22;12055;52.098;13.176;2022-07-18T06:57:58;28.90;93.30
23751;DHT22;12055;52.098;13.176;2022-07-18T07:00:24;29.10;92.10
23751;DHT22;12055;52.098;13.176;2022-07-18T07:02:49;29.40;92.60
23751;DHT22;12055;52.098;13.176;2022-07-18T07:05:16;29.10;90.60
23751;DHT22;12055;52.098;13.176;2022-07-18T07:07:43;28.90;91.30
23751;DHT22;12055;52.098;13.176;2022-07-18T07:10:09;29.20;91.40
23751;DHT22;12055;52.098;13.176;2022-07-18T07:12:41;29.40;88.30
23751;DHT22;12055;52.098;13.176;2022-07-18T07:15:08;29.70;90.70
23751;DHT22;12055;52.098;13.176;2022-07-18T07:17:35;29.70;88.80
23751;DHT22;12055;52.098;13.176;2022-07-18T07:20:00;29.60;88.40
23751;DHT22;12055;52.098;13.176;2022-07-18T07:22:26;29.70;89.90
23751;DHT22;12055;52.098;13.176;2022-07-18T07:24:51;29.80;86.50
23751;DHT22;12055;52.098;13.176;2022-07-18T07:27:16;29.80;89.20
23751;DHT22;12055;52.098;13.176;2022-07-18T07:29:42;29.90;86.80
23751;DHT22;12055;52.098;13.176;2022-07-18T07:32:07;29.40;84.20
23751;DHT22;12055;52.098;13.176;2022-07-18T07:34:33;29.10;85.30
23751;DHT22;12055;52.098;13.176;2022-07-18T07:36:58;29.50;86.70
23751;DHT22;12055;52.098;13.176;2022-07-18T07:39:25;29.70;81.30
23751;DHT22;12055;52.098;13.176;2022-07-18T07:41:50;29.40;82.70
23751;DHT22;12055;52.098;13.176;2022-07-18T07:44:16;29.70;80.30
23751;DHT22;12055;52.098;13.176;2022-07-18T07:46:41;30.10;83.50
23751;DHT22;12055;52.098;13.176;2022-07-18T07:49:06;30.30;82.80
23751;DHT22;12055;52.098;13.176;2022-07-18T07:51:32;30.30;84.70
23751;DHT22;12055;52.098;13.176;2022-07-18T07:53:57;30.90;82.30
23751;DHT22;12055;52.098;13.176;2022-07-18T07:56:23;31.20;80.60
23751;DHT22;12055;52.098;13.176;2022-07-18T07:58:49;30.90;81.20
23751;DHT22;12055;52.098;13.176;2022-07-18T08:01:14;30.90;80.10
23751;DHT22;12055;52.098;13.176;2022-07-18T08:03:42;31.30;80.30
23751;DHT22;12055;52.098;13.176;2022-07-18T08:06:10;31.30;75.60
23751;DHT22;12055;52.098;13.176;2022-07-18T08:08:35;31.30;78.70
23751;DHT22;12055;52.098;13.176;2022-07-18T08:11:01;31.50;81.30
23751;DHT22;12055;52.098;13.176;2022-07-18T08:13:26;31.60;79.50
23751;DHT22;12055;52.098;13.176;2022-07-18T08:15:52;31.80;78.50
23751;DHT22;12055;52.098;13.176;2022-07-18T08:18:17;31.40;77.50
23751;DHT22;12055;52.098;13.176;2022-07-18T08:20:43;31.40;77.00
23751;DHT22;12055;52.098;13.176;2022-07-18T08:23:10;31.50;77.20
23751;DHT22;12055;52.098;13.176;2022-07-18T08:25:38;31.80;76.80
23751;DHT22;12055;52.098;13.176;2022-07-18T08:28:05;32.00;79.00
23751;DHT22;12055;52.098;13.176;2022-07-18T08:30:31;31.80;74.80
23751;DHT22;12055;52.098;13.176;2022-07-18T08:32:57;31.30;72.40
23751;DHT22;12055;52.098;13.176;2022-07-18T08:35:23;31.10;72.50
23751;DHT22;12055;52.098;13.176;2022-07-18T08:37:49;30.60;71.10
23751;DHT22;12055;52.098;13.176;2022-07-18T08:40:15;30.40;74.60
23751;DHT22;12055;52.098;13.176;2022-07-18T08:42:40;30.60;74.60
23751;DHT22;12055;52.098;13.176;2022-07-18T08:45:06;30.40;75.30
23751;DHT22;12055;52.098;13.176;2022-07-18T08:47:32;30.50;76.00
23751;DHT22;12055;52.098;13.176;2022-07-18T08:50:00;30.30;75.00
23751;DHT22;12055;52.098;13.176;2022-07-18T08:52:27;30.20;74.40
23751;DHT22;12055;52.098;13.176;2022-07-18T08:54:54;30.40;71.70
23751;DHT22;12055;52.098;13.176;2022-07-18T08:57:21;30.30;74.80
23751;DHT22;12055;52.098;13.176;2022-07-18T08:59:46;30.50;74.30
23751;DHT22;12055;52.098;13.176;2022-07-18T09:02:12;30.10;72.40
23751;DHT22;12055;52.098;13.176;2022-07-18T09:04:42;29.50;75.40
23751;DHT22;12055;52.098;13.176;2022-07-18T09:07:09;29.30;74.50
23751;DHT22;12055;52.098;13.176;2022-07-18T09:09:36;29.30;77.20
23751;DHT22;12055;52.098;13.176;2022-07-18T09:12:08;29.10;75.70
23751;DHT22;12055;52.098;13.176;2022-07-18T09:14:44;29.10;77.70
23751;DHT22;12055;52.098;13.176;2022-07-18T09:17:11;29.20;74.60
23751;DHT22;12055;52.098;13.176;2022-07-18T09:19:42;29.00;75.90
23751;DHT22;12055;52.098;13.176;2022-07-18T09:22:16;29.00;76.00
23751;DHT22;12055;52.098;13.176;2022-07-18T09:25:09;28.70;78.10
23751;DHT22;12055;52.098;13.176;2022-07-18T09:27:41;28.60;77.90
23751;DHT22;12055;52.098;13.176;2022-07-18T09:30:11;28.50;75.40
23751;DHT22;12055;52.098;13.176;2022-07-18T09:32:39;29.00;78.70
23751;DHT22;12055;52.098;13.176;2022-07-18T09:35:10;29.30;73.40
23751;DHT22;12055;52.098;13.176;2022-07-18T09:37:36;29.60;75.40
23751;DHT22;12055;52.098;13.176;2022-07-18T09:40:22;29.60;73.40
23751;DHT22;12055;52.098;13.176;2022-07-18T09:42:53;29.30;75.40
23751;DHT22;12055;52.098;13.176;2022-07-18T09:45:24;29.20;76.40
23751;DHT22;12055;52.098;13.176;2022-07-18T09:47:58;29.20;77.80
23751;DHT22;12055;52.098;13.176;2022-07-18T09:50:30;29.40;75.60
23751;DHT22;12055;52.098;13.176;2022-07-18T09:55:25;29.40;74.30
23751;DHT22;12055;52.098;13.176;2022-07-18T09:57:58;29.60;73.30
23751;DHT22;12055;52.098;13.176;2022-07-18T10:00:26;29.80;76.80
23751;DHT22;12055;52.098;13.176;2022-07-18T10:02:52;30.40;78.30
23751;DHT22;12055;52.098;13.176;2022-07-18T10:05:19;30.50;73.40
23751;DHT22;12055;52.098;13.176;2022-07-18T10:07:45;29.90;71.50
23751;DHT22;12055;52.098;13.176;2022-07-18T10:10:13;29.80;74.00
23751;DHT22;12055;52.098;13.176;2022-07-18T10:12:39;30.20;76.90
23751;DHT22;12055;52.098;13.176;2022-07-18T10:15:05;30.30;75.80
23751;DHT22;12055;52.098;13.176;2022-07-18T10:17:31;30.40;69.60
23751;DHT22;12055;52.098;13.176;2022-07-18T10:20:03;30.60;76.20
23751;DHT22;12055;52.098;13.176;2022-07-18T10:22:35;30.50;72.90
23751;DHT22;12055;52.098;13.176;2022-07-18T10:25:05;30.40;73.20
23751;DHT22;12055;52.098;13.176;2022-07-18T10:27:48;30.40;72.00
23751;DHT22;12055;52.098;13.176;2022-07-18T10:30:14;30.70;72.30
23751;DHT22;12055;52.098;13.176;2022-07-18T10:32:41;30.60;73.80
23751;DHT22;12055;52.098;13.176;2022-07-18T10:35:08;30.60;73.60
23751;DHT22;12055;52.098;13.176;2022-07-18T10:37:34;30.80;73.90
23751;DHT22;12055;52.098;13.176;2022-07-18T10:40:28;31.10;72.40
23751;DHT22;12055;52.098;13.176;2022-07-18T10:45:55;31.00;76.20
23751;DHT22;12055;52.098;13.176;2022-07-18T10:51:11;31.30;70.50
23751;DHT22;12055;52.098;13.176;2022-07-18T10:58:58;31.20;67.20
23751;DHT22;12055;52.098;13.176;2022-07-18T11:01:25;30.70;68.90
23751;DHT22;12055;52.098;13.176;2022-07-18T11:04:30;30.40;71.20
23751;DHT22;12055;52.098;13.176;2022-07-18T11:07:15;30.60;70.80
23751;DHT22;12055;52.098;13.176;2022-07-18T11:09:42;31.00;68.30
23751;DHT22;12055;52.098;13.176;2022-07-18T11:15:17;31.50;69.20
23751;DHT22;12055;52.098;13.176;2022-07-18T11:20:24;30.80;69.30
23751;DHT22;12055;52.098;13.176;2022-07-18T11:22:50;31.10;68.50
23751;DHT22;12055;52.098;13.176;2022-07-18T11:25:17;31.10;70.00
23751;DHT22;12055;52.098;13.176;2022-07-18T11:27:44;31.30;68.40
23751;DHT22;12055;52.098;13.176;2022-07-18T11:30:09;31.50;72.00
23751;DHT22;12055;52.098;13.176;2022-07-18T11:32:36;31.80;72.00
23751;DHT22;12055;52.098;13.176;2022-07-18T11:35:02;32.00;69.70
23751;DHT22;12055;52.098;13.176;2022-07-18T11:37:31;31.80;67.70
23751;DHT22;12055;52.098;13.176;2022-07-18T11:40:06;31.70;70.70
23751;DHT22;12055;52.098;13.176;2022-07-18T11:42:39;31.70;67.30
23751;DHT22;12055;52.098;13.176;2022-07-18T11:45:06;31.50;69.50
23751;DHT22;12055;52.098;13.176;2022-07-18T11:47:38;31.70;68.90
23751;DHT22;12055;52.098;13.176;2022-07-18T11:50:05;32.10;69.70
23751;DHT22;12055;52.098;13.176;2022-07-18T11:52:30;32.70;69.90
23751;DHT22;12055;52.098;13.176;2022-07-18T11:54:59;32.90;70.10
23751;DHT22;12055;52.098;13.176;2022-07-18T11:57:30;32.90;69.50
23751;DHT22;12055;52.098;13.176;2022-07-18T11:59:56;33.10;70.40
23751;DHT22;12055;52.098;13.176;2022-07-18T12:02:22;33.20;68.00
23751;DHT22;12055;52.098;13.176;2022-07-18T12:04:47;32.70;65.80
23751;DHT22;12055;52.098;13.176;2022-07-18T12:07:18;32.50;67.10
23751;DHT22;12055;52.098;13.176;2022-07-18T12:09:46;32.40;68.20
23751;DHT22;12055;52.098;13.176;2022-07-18T12:12:13;32.40;71.10
23751;DHT22;12055;52.098;13.176;2022-07-18T12:14:39;32.60;69.00
23751;DHT22;12055;52.098;13.176;2022-07-18T12:17:05;32.80;67.90
23751;DHT22;12055;52.098;13.176;2022-07-18T12:19:37;32.70;64.40
23751;DHT22;12055;52.098;13.176;2022-07-18T12:22:09;32.50;65.90
23751;DHT22;12055;52.098;13.176;2022-07-18T12:24:53;32.50;69.60
23751;DHT22;12055;52.098;13.176;2022-07-18T12:27:35;32.40;66.10
23751;DHT22;12055;52.098;13.176;2022-07-18T12:32:52;32.10;67.80
23751;DHT22;12055;52.098;13.176;2022-07-18T12:35:25;31.80;69.40
23751;DHT22;12055;52.098;13.176;2022-07-18T12:38:17;32.10;70.30
23751;DHT22;12055;52.098;13.176;2022-07-18T12:40:54;32.40;63.90
23751;DHT22;12055;52.098;13.176;2022-07-18T12:43:30;32.50;64.80
23751;DHT22;12055;52.098;13.176;2022-07-18T12:45:58;32.40;66.40
23751;DHT22;12055;52.098;13.176;2022-07-18T12:48:26;32.30;66.80
23751;DHT22;12055;52.098;13.176;2022-07-18T12:50:56;32.10;68.20
23751;DHT22;12055;52.098;13.176;2022-07-18T12:53:23;32.20;65.30
23751;DHT22;12055;52.098;13.176;2022-07-18T12:55:48;32.30;72.00
23751;DHT22;12055;52.098;13.176;2022-07-18T12:58:13;32.30;68.90
23751;DHT22;12055;52.098;13.176;2022-07-18T13:00:39;32.10;63.60
23751;DHT22;12055;52.098;13.176;2022-07-18T13:03:05;32.30;67.60
23751;DHT22;12055;52.098;13.176;2022-07-18T13:05:30;32.60;67.30
23751;DHT22;12055;52.098;13.176;2022-07-18T13:07:56;32.20;64.30
23751;DHT22;12055;52.098;13.176;2022-07-18T13:10:22;32.30;66.30
23751;DHT22;12055;52.098;13.176;2022-07-18T13:12:47;32.10;63.90
23751;DHT22;12055;52.098;13.176;2022-07-18T13:15:13;32.00;66.30
23751;DHT22;12055;52.098;13.176;2022-07-18T13:17:39;32.10;69.00
23751;DHT22;12055;52.098;13.176;2022-07-18T13:20:04;32.20;66.60
23751;DHT22;12055;52.098;13.176;2022-07-18T13:22:31;32.60;67.50
23751;DHT22;12055;52.098;13.176;2022-07-18T13:25:06;32.90;66.50
23751;DHT22;12055;52.098;13.176;2022-07-18T13:27:33;32.90;66.40
23751;DHT22;12055;52.098;13.176;2022-07-18T13:29:59;32.60;62.20
23751;DHT22;12055;52.098;13.176;2022-07-18T13:32:27;32.70;65.50
23751;DHT22;12055;52.098;13.176;2022-07-18T13:34:52;33.00;65.50
23751;DHT22;12055;52.098;13.176;2022-07-18T13:37:18;33.10;68.20
23751;DHT22;12055;52.098;13.176;2022-07-18T13:39:43;33.30;70.80
23751;DHT22;12055;52.098;13.176;2022-07-18T13:42:09;33.30;62.90
23751;DHT22;12055;52.098;13.176;2022-07-18T13:44:34;33.00;61.30
23751;DHT22;12055;52.098;13.176;2022-07-18T13:47:00;32.70;62.00
23751;DHT22;12055;52.098;13.176;2022-07-18T13:49:25;32.90;71.40
23751;DHT22;12055;52.098;13.176;2022-07-18T13:51:51;33.30;65.00
23751;DHT22;12055;52.098;13.176;2022-07-18T13:54:16;33.50;65.00
23751;DHT22;12055;52.098;13.176;2022-07-18T13:56:44;33.20;67.00
23751;DHT22;12055;52.098;13.176;2022-07-18T13:59:09;32.90;64.80
23751;DHT22;12055;52.098;13.176;2022-07-18T14:01:35;32.80;64.70
23751;DHT22;12055;52.098;13.176;2022-07-18T14:04:01;32.80;64.70
23751;DHT22;12055;52.098;13.176;2022-07-18T14:06:26;32.60;63.50
23751;DHT22;12055;52.098;13.176;2022-07-18T14:08:52;32.90;66.20
23751;DHT22;12055;52.098;13.176;2022-07-18T14:11:17;33.50;64.10
23751;DHT22;12055;52.098;13.176;2022-07-18T14:13:43;33.70;64.20
23751;DHT22;12055;52.098;13.176;2022-07-18T14:16:09;33.50;65.10
23751;DHT22;12055;52.098;13.176;2022-07-18T14:18:34;33.50;62.20
23751;DHT22;12055;52.098;13.176;2022-07-18T14:21:00;33.50;60.20
23751;DHT22;12055;52.098;13.176;2022-07-18T14:23:25;33.50;61.20
23751;DHT22;12055;52.098;13.176;2022-07-18T14:25:51;33.40;62.60
23751;DHT22;12055;52.098;13.176;2022-07-18T14:28:16;33.20;65.50
23751;DHT22;12055;52.098;13.176;2022-07-18T14:30:42;32.60;63.20
23751;DHT22;12055;52.098;13.176;2022-07-18T14:33:07;32.10;60.40
23751;DHT22;12055;52.098;13.176;2022-07-18T14:35:32;32.30;65.70
23751;DHT22;12055;52.098;13.176;2022-07-18T14:37:58;32.40;65.10
23751;DHT22;12055;52.098;13.176;2022-07-18T14:40:24;32.40;65.60
23751;DHT22;12055;52.098;13.176;2022-07-18T14:42:49;32.40;65.70
23751;DHT22;12055;52.098;13.176;2022-07-18T14:45:16;32.40;64.60
23751;DHT22;12055;52.098;13.176;2022-07-18T14:47:42;32.30;67.60
23751;DHT22;12055;52.098;13.176;2022-07-18T14:50:08;32.40;66.50
23751;DHT22;12055;52.098;13.176;2022-07-18T14:52:35;32.50;68.70
23751;DHT22;12055;52.098;13.176;2022-07-18T14:55:01;32.40;64.00
23751;DHT22;12055;52.098;13.176;2022-07-18T14:57:27;32.40;65.60
23751;DHT22;12055;52.098;13.176;2022-07-18T14:59:52;32.20;65.40
23751;DHT22;12055;52.098;13.176;2022-07-18T15:02:18;32.10;68.10
23751;DHT22;12055;52.098;13.176;2022-07-18T15:04:43;32.10;67.20
23751;DHT22;12055;52.098;13.176;2022-07-18T15:07:09;32.20;71.20
23751;DHT22;12055;52.098;13.176;2022-07-18T15:09:35;32.10;67.70
23751;DHT22;12055;52.098;13.176;2022-07-18T15:12:01;31.90;64.70
23751;DHT22;12055;52.098;13.176;2022-07-18T15:14:26;32.00;69.10
23751;DHT22;12055;52.098;13.176;2022-07-18T15:16:52;32.10;69.10
23751;DHT22;12055;52.098;13.176;2022-07-18T15:19:18;32.30;61.80
23751;DHT22;12055;52.098;13.176;2022-07-18T15:21:44;32.40;66.10
23751;DHT22;12055;52.098;13.176;2022-07-18T15:24:09;32.30;67.20
23751;DHT22;12055;52.098;13.176;2022-07-18T15:26:35;32.40;64.70
23751;DHT22;12055;52.098;13.176;2022-07-18T15:29:00;32.40;65.10
23751;DHT22;12055;52.098;13.176;2022-07-18T15:31:26;32.40;67.60
23751;DHT22;12055;52.098;13.176;2022-07-18T15:33:52;32.50;66.20
23751;DHT22;12055;52.098;13.176;2022-07-18T15:36:17;32.50;64.30